This is the latest recevied weather packets stored in our database for station/object YO3IEZ-WX. If no packets are shown the sender has not sent any weather packets the latest 10 day(s).
| Time | Temp. | Humidity | Pressure | Rain* | Wind** | Luminosity | Snow |
|---|---|---|---|---|---|---|---|
| 1778079661 | 25.56° C | 40% | 1003.5 hPa | 0 mm | - | 320 W/m² | - |
| 1778078763 | 25.56° C | 40% | 1003.5 hPa | 0 mm | - | 362 W/m² | - |
| 1778074262 | 25.56° C | 40% | 1003.7 hPa | 0 mm | - | 564 W/m² | - |
| 1778073347 | 25° C | 41% | 1003.7 hPa | 0 mm | - | 601 W/m² | - |
| 1778072494 | 25.56° C | 41% | 1003.8 hPa | 0 mm | - | 631 W/m² | - |
| 1778066147 | 25° C | 41% | 1004.4 hPa | 0 mm | - | 795 W/m² | - |
| 1778064354 | 23.89° C | 45% | 1004.5 hPa | 0 mm | - | 817 W/m² | - |
| 1778060766 | 23.33° C | 44% | 1004.9 hPa | 0 mm | - | 817 W/m² | - |
| 1778058044 | 22.78° C | 43% | 1005 hPa | 0 mm | - | 795 W/m² | - |
| 1778052647 | 20.56° C | 49% | 1005 hPa | 0 mm | - | 652 W/m² | - |
| 1778051751 | 19.44° C | 52% | 1005.1 hPa | 0 mm | - | 622 W/m² | - |
| 1778046365 | 15.56° C | 62% | 1005.1 hPa | 0 mm | - | 320 W/m² | - |
| 1778041844 | 12.78° C | 70% | 1004.8 hPa | 0 mm | - | 151 W/m² | - |
| 1778040051 | 11.67° C | 73% | 1004.5 hPa | 0 mm | - | 81 W/m² | - |
| 1778037352 | 11.11° C | 75% | 1004.4 hPa | 0 mm | - | 12 W/m² | - |
| 1778034656 | 11.11° C | 74% | 1003.9 hPa | 0 mm | - | 0 W/m² | - |
| 1778033747 | 11.67° C | 74% | 1003.9 hPa | 0 mm | - | 0 W/m² | - |
| 1778029279 | 11.67° C | 77% | 1003.9 hPa | 0 mm | - | 0 W/m² | - |
| 1778027445 | 12.78° C | 74% | 1003.8 hPa | 0 mm | - | 0 W/m² | - |
| 1778021147 | 16.11° C | 59% | 1003.7 hPa | 0 mm | - | 0 W/m² | - |
| 1778019348 | 16.67° C | 56% | 1003.9 hPa | 0 mm | - | 0 W/m² | - |
| 1778012151 | 17.22° C | 58% | 1003.8 hPa | 0 mm | - | 0 W/m² | - |
| 1778008560 | 18.89° C | 53% | 1003.5 hPa | 0 mm | - | 0 W/m² | - |
| 1778000452 | 21.11° C | 53% | 1003.1 hPa | 0 mm | - | 9 W/m² | - |
| 1777998652 | 22.22° C | 50% | 1003 hPa | 0 mm | - | 25 W/m² | - |
* Rain latest hour (hover to see other rain measurements)
** Current wind speed in m/s (hover to see current wind gust speed)